Time;durP1;ratioP1;P1;durP2;ratioP2;P2;SDS_P1;SDS_P2;PMS_P1;PMS_P2;Temp;Humidity;BMP_temperature;BMP_pressure;BME280_temperature;BME280_humidity;BME280_pressure;Samples;Min_cycle;Max_cycle;Signal;HPM_P1;HPM_P2
2021/08/06 00:01:27;;;;;;;24.65;9.05;;;;;;;25.91;57.76;96351.19;4995084;28;20029;-80
2021/08/06 00:03:56;;;;;;;26.73;9.82;;;;;;;25.82;58.39;96342.41;5011162;28;20389;-80
2021/08/06 00:06:27;;;;;;;19.27;9.02;;;;;;;25.83;58.87;96352.31;4995091;28;20109;-80
2021/08/06 00:08:53;;;;;;;21.55;8.88;;;;;;;25.74;59.59;96348.16;4995225;28;20042;-80
2021/08/06 00:11:18;;;;;;;21.58;9.13;;;;;;;25.39;60.82;96350.38;4981389;28;20568;-79
2021/08/06 00:13:44;;;;;;;24.55;9.38;;;;;;;25.36;61.20;96348.06;4975400;28;20065;-79
2021/08/06 00:16:10;;;;;;;20.80;9.25;;;;;;;25.23;61.95;96357.16;4959506;28;20037;-79
2021/08/06 00:18:35;;;;;;;19.52;8.80;;;;;;;25.13;62.11;96353.22;5000536;28;20026;-80
2021/08/06 00:21:01;;;;;;;23.67;9.15;;;;;;;25.06;62.61;96355.97;4983031;28;20500;-79
2021/08/06 00:23:26;;;;;;;41.55;11.20;;;;;;;25.10;62.50;96368.16;4989767;28;20520;-79
2021/08/06 00:25:52;;;;;;;16.48;8.65;;;;;;;25.01;63.01;96354.94;4978236;28;20037;-79
2021/08/06 00:28:17;;;;;;;26.58;9.10;;;;;;;25.04;63.20;96355.31;4999033;28;20406;-79
2021/08/06 00:30:43;;;;;;;25.27;9.35;;;;;;;25.03;63.13;96341.88;4975083;28;20085;-80
2021/08/06 00:33:08;;;;;;;16.73;8.43;;;;;;;25.03;62.76;96331.75;4975034;28;20041;-79
2021/08/06 00:35:34;;;;;;;27.25;9.32;;;;;;;25.05;62.49;96328.78;4990644;28;20042;-79
2021/08/06 00:37:59;;;;;;;17.15;8.50;;;;;;;25.03;63.14;96339.97;5011889;28;20052;-79
2021/08/06 00:40:25;;;;;;;22.80;8.80;;;;;;;24.96;63.11;96327.34;4980530;28;20057;-79
2021/08/06 00:42:51;;;;;;;32.88;9.73;;;;;;;24.93;62.90;96328.63;4991000;28;20030;-78
2021/08/06 00:46:21;;;;;;;19.52;8.60;;;;;;;25.03;62.76;96315.34;4979888;28;20540;-82
2021/08/06 00:48:47;;;;;;;20.10;8.77;;;;;;;25.04;62.58;96313.44;5001134;28;20057;-79
2021/08/06 00:51:14;;;;;;;22.63;9.10;;;;;;;25.08;62.86;96320.16;4991114;28;20034;-79
2021/08/06 00:53:40;;;;;;;20.65;8.73;;;;;;;25.06;62.78;96306.69;4958784;28;20057;-79
2021/08/06 00:56:09;;;;;;;21.33;9.30;;;;;;;25.07;62.80;96308.38;4974651;28;20492;-78
2021/08/06 00:58:36;;;;;;;19.15;8.50;;;;;;;25.13;61.62;96307.50;4974956;28;20417;-79
2021/08/06 01:01:02;;;;;;;22.92;8.68;;;;;;;25.18;61.77;96315.91;4974530;28;20121;-78
2021/08/06 01:03:36;;;;;;;20.05;9.15;;;;;;;25.22;61.05;96322.66;4958917;28;20138;-79
2021/08/06 01:06:22;;;;;;;21.23;9.10;;;;;;;25.21;61.66;96328.34;4974795;28;20052;-79
2021/08/06 01:08:56;;;;;;;27.90;9.25;;;;;;;25.32;61.66;96333.97;5010277;28;20045;-79
2021/08/06 01:11:24;;;;;;;25.23;9.02;;;;;;;25.39;61.61;96333.94;5001573;28;20477;-80
2021/08/06 01:13:55;;;;;;;23.05;9.57;;;;;;;25.36;62.06;96328.91;4994590;28;20045;-79
2021/08/06 01:16:27;;;;;;;31.27;9.68;;;;;;;25.33;62.30;96313.75;4997409;28;20024;-80
2021/08/06 01:19:06;;;;;;;26.08;9.85;;;;;;;25.33;62.13;96316.50;4995832;28;20067;-79
2021/08/06 01:21:32;;;;;;;28.98;9.57;;;;;;;25.36;62.20;96323.44;5011509;28;20026;-80
2021/08/06 01:24:00;;;;;;;25.90;9.30;;;;;;;25.40;62.04;96329.31;4978730;28;20029;-80
2021/08/06 01:26:27;;;;;;;20.90;9.15;;;;;;;25.37;61.69;96322.38;5008173;28;20037;-80
2021/08/06 01:28:52;;;;;;;21.63;8.60;;;;;;;25.26;61.69;96317.56;4977482;28;20041;-79
2021/08/06 01:31:24;;;;;;;73.20;10.82;;;;;;;25.19;63.30;96325.81;4977668;28;20493;-80
2021/08/06 01:33:50;;;;;;;50.13;11.23;;;;;;;25.00;66.94;96313.03;5011838;28;20034;-79
2021/08/06 01:36:15;;;;;;;31.67;9.93;;;;;;;24.85;70.16;96317.06;5001061;28;20037;-79
2021/08/06 01:38:41;;;;;;;30.38;10.35;;;;;;;24.77;71.00;96318.09;5035294;28;20060;-80
2021/08/06 01:41:44;;;;;;;34.20;10.40;;;;;;;24.54;72.12;96334.13;5035088;28;20041;-80
2021/08/06 01:44:11;;;;;;;;;;;;;;;24.43;71.37;96338.31;4990676;28;20026;-80
2021/08/06 01:46:47;;;;;;;23.83;10.32;;;;;;;24.38;71.84;96356.41;5014520;28;19917;-79
2021/08/06 01:49:31;;;;;;;30.00;9.65;;;;;;;24.30;72.15;96351.16;5005575;28;20484;-79
2021/08/06 01:52:05;;;;;;;23.70;9.70;;;;;;;24.26;71.55;96345.28;4981161;28;20034;-79
2021/08/06 01:54:32;;;;;;;34.22;9.70;;;;;;;24.15;71.54;96330.34;5019227;28;20033;-80
2021/08/06 01:56:58;;;;;;;21.70;9.88;;;;;;;24.12;71.92;96338.94;5000270;28;20026;-79
2021/08/06 01:59:26;;;;;;;24.70;9.77;;;;;;;24.13;72.73;96340.66;5001953;28;20161;-80
2021/08/06 02:01:52;;;;;;;34.80;9.52;;;;;;;24.09;72.89;96333.88;5017196;28;20071;-80
2021/08/06 02:04:18;;;;;;;24.88;10.23;;;;;;;24.11;71.85;96333.72;5013560;28;20456;-80
2021/08/06 02:06:44;;;;;;;25.65;10.15;;;;;;;24.16;71.56;96337.50;4997277;28;20053;-79
2021/08/06 02:09:15;;;;;;;26.40;9.93;;;;;;;24.14;71.78;96339.59;4980949;28;20072;-79
2021/08/06 02:11:41;;;;;;;21.50;9.68;;;;;;;24.10;72.14;96351.09;4980974;28;20017;-81
2021/08/06 02:14:06;;;;;;;23.45;9.93;;;;;;;24.17;73.16;96355.59;4997160;28;20064;-80
2021/08/06 02:16:32;;;;;;;21.13;10.45;;;;;;;24.24;72.44;96367.34;5013532;28;20404;-80
2021/08/06 02:18:58;;;;;;;21.48;9.50;;;;;;;24.25;71.96;96352.63;4980632;28;20115;-79
2021/08/06 02:21:30;;;;;;;27.00;10.55;;;;;;;24.28;71.83;96352.22;4980722;28;20022;-80
2021/08/06 02:24:01;;;;;;;25.90;10.55;;;;;;;24.31;71.76;96333.69;4997320;28;20477;-80
2021/08/06 02:26:27;;;;;;;34.80;10.60;;;;;;;24.30;72.72;96327.41;4996999;28;20045;-79
2021/08/06 02:28:52;;;;;;;29.33;10.23;;;;;;;24.19;73.65;96336.22;4997099;28;20033;-79
2021/08/06 02:31:19;;;;;;;28.08;10.63;;;;;;;24.10;74.57;96341.03;5013080;28;20041;-79
2021/08/06 02:33:45;;;;;;;25.88;11.35;;;;;;;23.92;75.83;96348.13;4996912;28;20037;-79
2021/08/06 02:36:11;;;;;;;30.35;11.68;;;;;;;23.84;76.74;96353.81;4996499;28;20025;-79
2021/08/06 02:38:36;;;;;;;27.20;12.35;;;;;;;23.78;77.61;96365.56;4996995;28;20036;-79
2021/08/06 02:41:02;;;;;;;32.35;12.75;;;;;;;23.71;77.71;96368.28;4996622;28;20500;-78
2021/08/06 02:43:28;;;;;;;38.92;15.63;;;;;;;23.62;78.48;96364.03;4980399;28;20036;-80
2021/08/06 02:45:53;;;;;;;44.83;16.70;;;;;;;23.62;78.34;96391.34;4979735;28;20041;-79
2021/08/06 02:48:19;;;;;;;31.75;13.07;;;;;;;23.60;77.97;96396.16;4996527;28;20040;-79
2021/08/06 02:50:45;;;;;;;24.45;10.93;;;;;;;23.63;75.24;96412.97;4980199;28;20021;-79
2021/08/06 02:53:11;;;;;;;22.25;10.27;;;;;;;23.63;74.83;96412.13;4996460;28;20033;-79
2021/08/06 02:55:36;;;;;;;21.15;11.13;;;;;;;23.63;74.38;96420.31;4996553;28;20030;-80
2021/08/06 02:58:03;;;;;;;27.05;10.93;;;;;;;23.64;73.83;96413.81;4996346;28;20025;-79
2021/08/06 03:00:28;;;;;;;24.08;10.77;;;;;;;23.65;73.77;96410.06;4980178;28;20030;-79
2021/08/06 03:02:54;;;;;;;29.13;10.57;;;;;;;23.70;74.12;96410.28;4980159;28;20493;-80
2021/08/06 03:05:19;;;;;;;32.50;10.68;;;;;;;23.81;73.26;96417.84;4979668;28;20030;-79
2021/08/06 03:07:50;;;;;;;22.38;10.02;;;;;;;23.84;71.76;96417.44;4995906;28;20061;-79
2021/08/06 03:10:18;;;;;;;15.93;9.85;;;;;;;23.64;73.87;96408.34;4996248;28;20037;-79
2021/08/06 03:12:48;;;;;;;22.77;10.68;;;;;;;23.42;74.81;96417.69;4996925;28;20034;-79
2021/08/06 03:15:14;;;;;;;22.05;9.52;;;;;;;23.33;74.64;96417.00;4996150;28;20026;-79
2021/08/06 03:17:41;;;;;;;19.17;10.55;;;;;;;23.31;74.92;96421.84;4979723;28;20535;-79
2021/08/06 03:20:22;;;;;;;25.25;10.70;;;;;;;23.31;75.46;96435.47;4995617;28;20160;-79
2021/08/06 03:22:48;;;;;;;19.27;9.93;;;;;;;23.40;74.24;96455.28;4996913;28;20013;-79
2021/08/06 03:25:14;;;;;;;20.50;9.90;;;;;;;23.36;74.48;96453.97;5013372;28;20485;-79
2021/08/06 03:27:40;;;;;;;64.60;11.68;;;;;;;23.37;73.21;96459.22;4980012;28;20045;-79
2021/08/06 03:30:08;;;;;;;36.53;10.43;;;;;;;23.48;72.90;96468.75;4979741;28;20044;-79
2021/08/06 03:32:33;;;;;;;55.97;11.50;;;;;;;23.61;71.89;96475.16;4988024;28;20153;-79
2021/08/06 03:34:59;;;;;;;37.50;8.82;;;;;;;23.68;67.46;96475.19;4996323;28;20480;-80
2021/08/06 03:37:25;;;;;;;44.97;8.82;;;;;;;23.77;68.09;96473.97;4995496;28;20033;-80
2021/08/06 03:39:50;;;;;;;25.25;9.55;;;;;;;23.86;68.77;96467.28;4996157;28;20033;-80
2021/08/06 03:42:16;;;;;;;27.10;9.35;;;;;;;23.95;67.62;96476.97;5013068;28;20506;-79
2021/08/06 03:44:41;;;;;;;31.80;9.75;;;;;;;24.02;67.53;96475.13;5013305;28;20033;-80
2021/08/06 03:47:07;;;;;;;40.30;8.75;;;;;;;24.15;62.36;96477.91;5011682;28;20038;-80
2021/08/06 03:49:32;;;;;;;12.05;6.45;;;;;;;24.24;59.45;96490.34;4995282;28;20034;-79
2021/08/06 03:51:58;;;;;;;19.50;6.05;;;;;;;24.28;59.06;96488.03;5011946;28;20054;-80
2021/08/06 03:54:23;;;;;;;15.85;5.20;;;;;;;24.43;57.42;96488.72;5012992;28;20037;-79
2021/08/06 03:56:49;;;;;;;10.68;5.75;;;;;;;24.46;57.43;96501.13;5012233;28;20022;-80
2021/08/06 03:59:15;;;;;;;24.10;6.95;;;;;;;24.57;57.01;96489.59;5011703;28;20038;-79
2021/08/06 04:01:40;;;;;;;15.13;5.32;;;;;;;24.65;56.55;96483.91;5011597;28;20492;-80
2021/08/06 04:04:08;;;;;;;38.15;10.73;;;;;;;24.77;56.59;96494.03;5012986;28;20087;-78
2021/08/06 04:06:33;;;;;;;16.77;5.65;;;;;;;24.76;55.93;96503.28;4995325;28;20038;-78
2021/08/06 04:08:59;;;;;;;18.17;5.40;;;;;;;24.78;55.96;96511.28;5011544;28;20517;-79
2021/08/06 04:11:25;;;;;;;12.02;5.20;;;;;;;24.85;55.97;96517.66;4994900;28;20374;-78
2021/08/06 04:13:50;;;;;;;17.63;7.28;;;;;;;24.86;55.70;96518.47;4995229;28;20042;-79
2021/08/06 04:16:16;;;;;;;23.05;8.48;;;;;;;24.84;55.56;96531.53;4978911;28;20032;-78
2021/08/06 04:18:41;;;;;;;15.90;5.88;;;;;;;24.70;56.29;96526.00;5011545;28;20144;-79
2021/08/06 04:21:07;;;;;;;23.00;5.80;;;;;;;24.72;56.09;96540.31;5011627;28;20014;-80
2021/08/06 04:23:33;;;;;;;16.63;5.70;;;;;;;24.76;56.29;96547.03;4978544;28;20037;-77
2021/08/06 04:25:58;;;;;;;69.18;6.82;;;;;;;24.71;56.96;96554.19;5010965;28;20025;-78
2021/08/06 04:28:24;;;;;;;130.50;9.27;;;;;;;24.71;60.26;96565.13;4994757;28;20040;-77
2021/08/06 04:30:50;;;;;;;183.52;13.43;;;;;;;24.58;64.18;96555.00;4995077;28;20025;-79
2021/08/06 04:33:15;;;;;;;74.28;8.63;;;;;;;24.05;76.18;96543.03;4978778;28;20030;-78
2021/08/06 04:35:41;;;;;;;29.55;7.60;;;;;;;23.48;81.10;96547.94;5012172;28;20091;-79
2021/08/06 04:38:07;;;;;;;26.67;9.32;;;;;;;23.10;88.37;96570.06;4994633;28;20451;-78
2021/08/06 04:40:32;;;;;;;25.08;8.20;;;;;;;22.82;94.17;96577.38;4978133;28;20030;-78
2021/08/06 04:42:58;;;;;;;25.10;8.65;;;;;;;22.56;97.62;96567.00;4994523;28;20157;-79
2021/08/06 04:45:24;;;;;;;21.85;7.93;;;;;;;22.29;99.97;96580.53;4994102;28;20393;-78
2021/08/06 04:47:51;;;;;;;16.02;7.78;;;;;;;22.19;100.00;96582.69;4978088;28;20180;-79
2021/08/06 04:50:20;;;;;;;16.67;7.13;;;;;;;22.07;96.56;96587.78;4994682;28;20103;-78
2021/08/06 04:52:46;;;;;;;18.42;7.97;;;;;;;22.01;100.00;96583.94;4995837;28;20539;-79
2021/08/06 04:55:12;;;;;;;16.98;7.82;;;;;;;21.96;100.00;96597.31;5010646;28;20026;-79
2021/08/06 04:57:38;;;;;;;13.13;8.00;;;;;;;21.81;100.00;96611.94;4994050;28;20169;-78
2021/08/06 05:00:06;;;;;;;24.92;9.43;;;;;;;21.75;100.00;96610.75;5010225;28;20037;-79
2021/08/06 05:02:31;;;;;;;22.20;8.95;;;;;;;21.76;100.00;96617.06;4993898;28;20037;-80
2021/08/06 05:04:57;;;;;;;17.92;6.72;;;;;;;21.72;100.00;96592.09;4994126;28;20084;-78
2021/08/06 05:07:22;;;;;;;19.92;7.13;;;;;;;21.65;100.00;96580.28;4998351;28;20045;-78
2021/08/06 05:09:48;;;;;;;14.52;7.13;;;;;;;21.68;100.00;96588.06;5027186;28;20034;-78
2021/08/06 05:12:14;;;;;;;17.95;7.15;;;;;;;21.64;100.00;96597.63;5026804;28;20038;-79
2021/08/06 05:14:40;;;;;;;30.75;7.72;;;;;;;21.51;100.00;96595.56;5024459;28;20064;-78
2021/08/06 05:17:09;;;;;;;18.10;7.40;;;;;;;21.40;100.00;96595.16;4999001;28;20624;-78
2021/08/06 05:19:36;;;;;;;18.58;7.80;;;;;;;21.25;100.00;96591.59;4974312;28;20116;-78
2021/08/06 05:22:01;;;;;;;17.20;7.13;;;;;;;21.16;100.00;96611.72;4958374;28;20477;-79
2021/08/06 05:24:27;;;;;;;11.63;6.65;;;;;;;20.99;100.00;96608.25;4974285;28;20068;-80
2021/08/06 05:26:52;;;;;;;10.23;4.22;;;;;;;20.50;100.00;96608.63;4982263;28;20031;-79
2021/08/06 05:29:18;;;;;;;5.80;1.15;;;;;;;20.40;100.00;96601.69;5022244;28;20041;-80
2021/08/06 05:31:44;;;;;;;1.80;1.38;;;;;;;20.30;100.00;96604.63;4993710;28;20786;-79
2021/08/06 05:34:09;;;;;;;1.13;0.82;;;;;;;20.25;100.00;96611.59;5012468;28;20022;-79
2021/08/06 05:36:35;;;;;;;1.85;0.47;;;;;;;20.29;100.00;96627.41;4983254;28;20026;-80
2021/08/06 05:39:00;;;;;;;0.30;0.30;;;;;;;20.41;100.00;96638.72;4998639;28;20026;-80
2021/08/06 05:41:26;;;;;;;0.43;0.38;;;;;;;20.35;100.00;96623.13;5006789;28;20405;-79
2021/08/06 05:43:52;;;;;;;0.88;0.47;;;;;;;20.26;100.00;96621.50;4973973;28;20029;-79
2021/08/06 05:46:17;;;;;;;1.13;0.82;;;;;;;20.24;100.00;96620.78;4973993;28;20038;-78
2021/08/06 05:48:43;;;;;;;0.60;0.35;;;;;;;20.39;100.00;96632.63;4973936;28;20038;-78
2021/08/06 05:51:08;;;;;;;0.85;0.85;;;;;;;20.41;100.00;96636.00;4958130;28;20030;-80
2021/08/06 05:53:34;;;;;;;0.32;0.32;;;;;;;20.32;100.00;96627.06;4973958;28;20049;-79
2021/08/06 05:56:00;;;;;;;0.43;0.43;;;;;;;20.46;100.00;96628.16;4974105;28;20504;-78
2021/08/06 05:58:26;;;;;;;1.48;0.80;;;;;;;20.62;100.00;96624.50;4981372;28;20571;-81
2021/08/06 06:00:52;;;;;;;0.70;0.70;;;;;;;20.69;100.00;96634.47;4993626;28;20029;-78
2021/08/06 06:03:18;;;;;;;8.68;1.23;;;;;;;20.77;100.00;96631.69;4993548;28;20026;-80
2021/08/06 06:05:46;;;;;;;1.80;0.70;;;;;;;20.74;100.00;96637.50;5011115;28;20026;-78
2021/08/06 06:08:12;;;;;;;0.82;0.70;;;;;;;20.73;100.00;96640.41;4999178;28;20105;-78
2021/08/06 06:10:38;;;;;;;3.25;1.17;;;;;;;20.73;100.00;96635.81;4973963;28;20030;-78
2021/08/06 06:13:03;;;;;;;0.32;0.32;;;;;;;20.86;100.00;96637.91;4973971;28;20033;-78
2021/08/06 06:15:30;;;;;;;1.80;0.73;;;;;;;21.01;100.00;96642.38;4990323;28;20033;-78
2021/08/06 06:17:56;;;;;;;0.50;0.50;;;;;;;21.06;100.00;96642.72;4973792;28;20022;-80
2021/08/06 06:20:22;;;;;;;0.60;0.55;;;;;;;21.15;100.00;96635.34;4976516;28;20022;-80
2021/08/06 06:22:48;;;;;;;3.90;1.27;;;;;;;21.26;100.00;96645.78;4977526;28;20034;-78
2021/08/06 06:25:17;;;;;;;6.28;0.88;;;;;;;21.48;100.00;96644.91;4993764;28;20031;-79
2021/08/06 06:28:07;;;;;;;0.45;0.43;;;;;;;21.75;100.00;96650.78;4977097;28;20394;-79
2021/08/06 06:30:33;;;;;;;0.93;0.70;;;;;;;21.92;100.00;96645.00;5010137;28;20077;-79
2021/08/06 06:33:01;;;;;;;1.83;0.85;;;;;;;22.06;96.84;96646.88;4996765;28;20021;-79
2021/08/06 06:35:27;;;;;;;0.82;0.70;;;;;;;22.20;98.80;96644.34;5007647;28;20026;-79
2021/08/06 06:37:53;;;;;;;4.90;1.08;;;;;;;22.48;94.35;96653.50;4960777;28;20109;-79
2021/08/06 06:40:21;;;;;;;0.35;0.35;;;;;;;22.65;96.17;96649.53;4991089;28;20049;-78
2021/08/06 06:42:47;;;;;;;0.50;0.40;;;;;;;22.84;97.58;96646.19;5014013;28;20033;-79
2021/08/06 06:45:13;;;;;;;3.17;0.88;;;;;;;23.14;96.47;96650.50;4980493;28;20049;-79
2021/08/06 06:47:41;;;;;;;0.55;0.55;;;;;;;23.54;97.62;96648.16;5012630;28;20430;-78
2021/08/06 06:50:10;;;;;;;1.77;0.93;;;;;;;23.95;94.01;96638.19;4980358;28;20028;-79
2021/08/06 06:52:39;;;;;;;1.02;0.73;;;;;;;24.55;89.10;96636.63;5006164;28;20033;-79
2021/08/06 06:55:06;;;;;;;1.70;0.70;;;;;;;24.58;85.22;96636.22;4972309;28;20028;-79
2021/08/06 06:57:31;;;;;;;1.40;1.17;;;;;;;24.63;85.92;96634.56;5376829;22;22006;-75
2021/08/06 07:00:00;;;;;;;1.17;0.90;;;;;;;24.66;85.66;96636.88;5017163;28;20416;-75
2021/08/06 07:02:25;;;;;;;0.43;0.43;;;;;;;24.57;85.62;96638.13;5023233;28;20094;-78
2021/08/06 07:04:51;;;;;;;10.25;0.77;;;;;;;24.57;88.19;96626.34;5010913;28;20029;-76
2021/08/06 07:07:17;;;;;;;1.23;0.63;;;;;;;24.67;86.89;96629.53;5022893;28;20041;-76
2021/08/06 07:09:42;;;;;;;0.73;0.63;;;;;;;24.60;85.74;96631.41;5016484;28;20033;-77
2021/08/06 07:12:08;;;;;;;0.93;0.85;;;;;;;24.75;85.85;96635.66;5034158;28;20029;-79
2021/08/06 07:14:34;;;;;;;2.55;1.17;;;;;;;25.31;81.20;96628.03;5022868;28;20484;-78
2021/08/06 07:16:59;;;;;;;0.57;0.57;;;;;;;25.22;81.07;96634.75;4986469;28;20017;-78
2021/08/06 07:19:25;;;;;;;0.45;0.45;;;;;;;25.09;78.77;96629.25;5007781;28;20034;-76
2021/08/06 07:21:51;;;;;;;0.60;0.60;;;;;;;25.03;81.50;96630.06;5028680;28;20118;-76
2021/08/06 07:24:17;;;;;;;0.17;0.17;;;;;;;25.21;79.78;96630.31;5013668;28;20033;-74
2021/08/06 07:26:43;;;;;;;4.30;1.70;;;;;;;25.24;82.15;96627.16;4983884;28;20036;-75
2021/08/06 07:29:09;;;;;;;6.22;0.68;;;;;;;25.57;81.32;96621.72;5025388;28;20028;-74
2021/08/06 07:31:34;;;;;;;0.68;0.68;;;;;;;26.85;72.68;96629.25;5007600;28;20124;-83
2021/08/06 07:34:00;;;;;;;7.50;2.10;;;;;;;26.64;69.52;96627.59;4976349;28;20033;-77
2021/08/06 07:36:25;;;;;;;1.83;1.02;;;;;;;26.33;71.03;96628.34;5012296;28;20060;-78
2021/08/06 07:38:51;;;;;;;0.38;0.38;;;;;;;26.82;73.45;96644.25;5009151;28;20025;-75
2021/08/06 07:41:17;;;;;;;0.32;0.32;;;;;;;27.86;65.12;96635.53;5021247;28;20514;-75
2021/08/06 07:43:42;;;;;;;0.65;0.52;;;;;;;29.44;57.34;96640.84;5009284;28;20453;-75
2021/08/06 07:46:08;;;;;;;1.25;0.82;;;;;;;31.21;50.60;96633.97;5017975;28;20055;-75
2021/08/06 07:48:34;;;;;;;0.75;0.57;;;;;;;30.60;54.38;96635.47;5000511;28;20033;-74
2021/08/06 07:50:59;;;;;;;0.40;0.40;;;;;;;29.87;54.74;96617.72;5000599;28;20113;-75
2021/08/06 07:53:25;;;;;;;0.43;0.43;;;;;;;29.34;54.02;96620.47;5000518;28;20048;-76
2021/08/06 07:55:52;;;;;;;2.15;1.10;;;;;;;30.97;51.51;96624.94;4991484;28;20030;-75
2021/08/06 07:58:18;;;;;;;1.15;0.70;;;;;;;32.69;45.38;96622.38;5013241;28;20053;-77
2021/08/06 08:00:44;;;;;;;0.65;0.57;;;;;;;33.62;45.79;96629.59;5018279;28;20026;-78
2021/08/06 08:03:09;;;;;;;3.92;0.98;;;;;;;33.60;45.75;96624.31;5009149;28;20029;-77
2021/08/06 08:05:35;;;;;;;0.25;0.25;;;;;;;34.23;41.80;96622.66;5005855;28;20033;-80
2021/08/06 08:08:01;;;;;;;0.30;0.30;;;;;;;32.86;44.59;96622.28;5028448;28;20448;-77
2021/08/06 08:10:27;;;;;;;7.65;3.00;;;;;;;34.02;43.55;96612.47;5011538;28;20025;-83
2021/08/06 08:12:52;;;;;;;7.95;3.85;;;;;;;35.04;41.58;96620.34;5002773;28;20381;-77
2021/08/06 08:15:18;;;;;;;9.80;4.03;;;;;;;33.16;43.10;96617.16;5002769;28;20381;-80
2021/08/06 08:17:43;;;;;;;6.75;3.97;;;;;;;31.08;45.50;96612.16;5008063;28;20093;-78
2021/08/06 08:20:10;;;;;;;5.93;3.95;;;;;;;33.21;41.86;96597.81;4980680;28;20553;-77
2021/08/06 08:22:35;;;;;;;4.43;3.30;;;;;;;34.17;41.92;96595.94;4993589;28;20576;-84
2021/08/06 08:25:01;;;;;;;10.77;4.35;;;;;;;32.85;45.59;96604.84;5012654;28;20104;-84
2021/08/06 08:27:28;;;;;;;10.77;4.32;;;;;;;31.44;48.25;96591.56;4996085;28;20484;-85
2021/08/06 08:29:54;;;;;;;7.07;3.60;;;;;;;32.89;44.03;96588.50;4991444;28;20036;-84
2021/08/06 08:32:21;;;;;;;7.50;4.30;;;;;;;33.71;40.22;96562.25;4997230;28;20058;-86
2021/08/06 08:34:46;;;;;;;9.00;3.53;;;;;;;33.63;41.34;96579.38;4976484;28;20056;-86
2021/08/06 08:37:14;;;;;;;6.07;3.30;;;;;;;34.15;38.92;96575.91;5001780;28;20028;-85
2021/08/06 08:39:40;;;;;;;8.38;3.60;;;;;;;33.75;39.37;96573.66;4997116;28;20037;-85
2021/08/06 08:42:06;;;;;;;6.15;3.40;;;;;;;33.70;39.55;96565.28;4988434;28;20034;-85
2021/08/06 08:44:37;;;;;;;10.88;3.50;;;;;;;34.64;38.66;96594.00;4994642;28;20525;-85
2021/08/06 08:47:04;;;;;;;10.40;3.78;;;;;;;34.61;38.82;96605.66;5011982;28;20472;-84
2021/08/06 08:49:33;;;;;;;7.63;3.20;;;;;;;34.40;37.91;96583.56;4985194;28;20083;-85
2021/08/06 08:51:59;;;;;;;10.25;3.55;;;;;;;33.39;38.89;96572.47;4976236;28;20022;-76
2021/08/06 08:54:25;;;;;;;16.38;4.55;;;;;;;32.61;42.91;96597.88;4975573;28;20041;-74
2021/08/06 08:56:51;;;;;;;9.88;3.80;;;;;;;32.92;41.85;96590.75;4991597;28;20418;-75
2021/08/06 08:59:17;;;;;;;14.38;4.30;;;;;;;33.47;41.79;96591.41;4990914;28;20049;-76
2021/08/06 09:01:43;;;;;;;20.27;4.22;;;;;;;34.30;39.48;96587.16;5023452;28;20055;-76
2021/08/06 09:04:28;;;;;;;8.50;4.00;;;;;;;33.31;40.15;96580.44;5030145;28;20032;-77
2021/08/06 09:06:53;;;;;;;5.75;3.70;;;;;;;33.76;39.32;96592.81;5004321;28;20033;-77
2021/08/06 09:09:22;;;;;;;6.53;3.60;;;;;;;34.06;39.47;96583.03;4994984;28;20413;-77
2021/08/06 09:12:03;;;;;;;40.40;29.83;;;;;;;34.32;37.88;96593.25;4991757;28;20036;-77
2021/08/06 09:14:30;;;;;;;7.32;4.10;;;;;;;33.58;40.35;96595.97;4991164;28;20480;-76
2021/08/06 09:17:05;;;;;;;12.55;4.25;;;;;;;33.70;40.67;96585.56;5011471;28;20035;-77
2021/08/06 09:19:33;;;;;;;11.52;4.30;;;;;;;33.53;42.25;96572.88;5004594;28;20505;-76
2021/08/06 09:22:22;;;;;;;8.13;3.85;;;;;;;32.48;41.70;96578.84;5022648;28;20033;-76
2021/08/06 09:25:10;;;;;;;11.35;4.85;;;;;;;31.67;41.86;96595.03;4995328;28;20029;-77
2021/08/06 09:27:44;;;;;;;14.63;5.65;;;;;;;31.54;42.59;96591.75;5001482;28;20555;-77
2021/08/06 09:30:31;;;;;;;7.70;4.07;;;;;;;30.74;44.37;96597.34;4999998;28;20025;-80
2021/08/06 09:32:57;;;;;;;9.75;4.65;;;;;;;31.72;43.09;96593.44;5008954;28;20040;-77
2021/08/06 09:35:26;;;;;;;9.82;4.65;;;;;;;31.46;43.93;96600.44;4991767;28;20476;-78
2021/08/06 09:37:52;;;;;;;11.48;4.15;;;;;;;31.53;42.63;96595.63;4987242;28;20029;-78
2021/08/06 09:40:30;;;;;;;6.80;4.70;;;;;;;31.13;43.66;96595.69;5011094;28;20033;-77
2021/08/06 09:42:58;;;;;;;8.13;4.03;;;;;;;30.73;45.73;96597.63;5010582;28;20033;-77
2021/08/06 09:45:27;;;;;;;9.20;3.60;;;;;;;30.73;44.73;96584.66;5028693;28;20087;-77
2021/08/06 09:47:56;;;;;;;9.20;3.88;;;;;;;30.75;45.37;96592.66;4994241;28;20067;-77
2021/08/06 09:50:45;;;;;;;5.50;3.88;;;;;;;32.54;42.95;96586.97;5018983;28;20089;-78
2021/08/06 09:53:12;;;;;;;5.20;3.90;;;;;;;35.07;37.25;96580.88;4986081;28;20045;-80
2021/08/06 09:55:46;;;;;;;7.00;4.03;;;;;;;36.65;33.71;96577.88;4993747;28;20542;-78
2021/08/06 09:58:18;;;;;;;11.13;3.97;;;;;;;37.84;32.08;96574.72;4986004;28;20075;-78
2021/08/06 10:00:46;;;;;;;4.72;3.90;;;;;;;36.32;32.55;96571.81;5014563;28;20076;-78
2021/08/06 10:03:33;;;;;;;6.25;4.78;;;;;;;34.19;35.78;96577.91;5014126;28;20033;-79
2021/08/06 10:06:17;;;;;;;8.68;5.03;;;;;;;32.58;40.12;96577.06;4997588;28;20039;-78
2021/08/06 10:08:43;;;;;;;11.93;5.55;;;;;;;32.82;40.12;96579.59;5014116;28;20029;-77
2021/08/06 10:11:09;;;;;;;8.57;5.05;;;;;;;32.66;40.47;96573.88;4994284;28;20501;-78
2021/08/06 10:13:37;;;;;;;21.15;6.00;;;;;;;32.01;42.15;96575.63;4987125;28;20103;-78
2021/08/06 10:16:03;;;;;;;9.57;5.75;;;;;;;32.39;41.99;96550.78;5018907;28;20029;-78
2021/08/06 10:18:28;;;;;;;12.98;5.57;;;;;;;32.90;40.89;96543.09;4994738;28;20365;-78
2021/08/06 10:20:54;;;;;;;15.35;5.60;;;;;;;34.27;38.16;96551.59;4994542;28;20048;-78
2021/08/06 10:23:19;;;;;;;17.10;5.25;;;;;;;35.93;34.48;96551.25;5009264;28;20488;-78
2021/08/06 10:25:45;;;;;;;8.23;4.93;;;;;;;37.59;32.04;96549.81;5005216;28;20045;-79
2021/08/06 10:28:11;;;;;;;5.65;5.07;;;;;;;37.40;33.59;96562.75;4978476;28;20385;-76
2021/08/06 10:30:38;;;;;;;9.25;5.95;;;;;;;36.82;32.80;96548.56;4978278;28;20034;-75
2021/08/06 10:33:29;;;;;;;13.45;5.80;;;;;;;37.48;31.35;96551.00;4995069;28;20140;-76
2021/08/06 10:36:01;;;;;;;9.60;5.55;;;;;;;37.69;30.15;96530.16;4991423;28;20034;-76
2021/08/06 10:38:39;;;;;;;14.50;5.72;;;;;;;38.50;29.74;96523.84;5027418;28;20048;-77
2021/08/06 10:41:20;;;;;;;12.48;5.80;;;;;;;39.65;27.88;96526.19;5031140;28;20032;-76
2021/08/06 10:44:06;;;;;;;9.30;5.20;;;;;;;39.42;29.21;96519.56;5024757;28;20064;-76
2021/08/06 10:46:52;;;;;;;10.73;5.00;;;;;;;40.05;29.18;96525.53;4990118;28;20030;-78
2021/08/06 10:49:18;;;;;;;9.00;5.05;;;;;;;40.11;27.99;96517.06;5005022;28;20074;-75
2021/08/06 10:51:45;;;;;;;7.15;4.65;;;;;;;40.23;27.81;96501.41;4981012;28;20057;-75
2021/08/06 10:54:27;;;;;;;7.60;5.00;;;;;;;39.38;30.17;96509.25;4997567;28;20698;-75
2021/08/06 10:57:21;;;;;;;8.07;4.60;;;;;;;38.64;30.34;96502.41;5013513;28;20021;-75
2021/08/06 10:59:47;;;;;;;9.43;5.20;;;;;;;36.72;33.32;96509.56;5031146;28;20095;-75
2021/08/06 11:02:35;;;;;;;7.20;5.22;;;;;;;34.52;37.27;96526.69;5026324;28;20477;-75
2021/08/06 11:05:01;;;;;;;10.27;7.53;;;;;;;32.91;40.09;96536.47;5019004;28;20033;-86
2021/08/06 11:07:32;;;;;;;10.38;5.68;;;;;;;33.25;38.73;96529.63;4996877;28;20033;-85
2021/08/06 11:09:58;;;;;;;14.03;5.43;;;;;;;32.30;39.57;96507.16;5006599;28;20105;-84
2021/08/06 11:12:32;;;;;;;22.55;5.80;;;;;;;31.21;40.90;96506.81;4979511;28;20296;-85
2021/08/06 11:15:03;;;;;;;8.55;5.78;;;;;;;30.91;41.11;96520.91;5001448;28;20029;-84
2021/08/06 11:17:41;;;;;;;5.90;5.30;;;;;;;32.11;39.98;96503.88;5008603;28;20528;-78
2021/08/06 11:20:12;;;;;;;13.20;6.20;;;;;;;32.33;38.91;96501.94;4999814;28;20551;-77
2021/08/06 11:22:43;;;;;;;6.20;5.10;;;;;;;32.56;38.68;96492.56;5018783;28;20029;-77
2021/08/06 11:25:17;;;;;;;9.85;5.13;;;;;;;32.63;38.64;96495.97;4988787;28;20053;-77
2021/08/06 11:27:44;;;;;;;10.05;4.55;;;;;;;32.61;38.97;96493.44;5001259;28;20025;-79
2021/08/06 11:30:13;;;;;;;9.10;4.18;;;;;;;31.89;40.02;96489.13;5022950;28;20025;-77
2021/08/06 11:33:00;;;;;;;12.63;4.45;;;;;;;31.56;40.14;96490.03;4981883;28;20053;-77